Copperhill, Tennessee
Current Conditions -  °F | °C
As of 3:15 PM on Wednesday 28 Jan 2015 (Local Time) from KRZR Reporting Station
Clear Clear  
Wind Chill: 45°   Ceiling: Unl
Heat Index: 45°   Visibility: 10mi
Dew Point:   Wind: 3mph
Humidity: 21%   Direction: 10°N
Pressure: 30.26"   Gusts: NA
Location:  34.99°N, 84.37°W
Report Text: KRZR 282015Z AUTO 01003KT 10SM CLR 07/M14 A3026 RMK
Loading
Personal Weather Stations






























Interactive Weather Map New forecast layout! Learn more

10-Day Weather Forecast

Advertisements
Track Severe Weather on mobile